createdAt,value
2022-12-08T00:01:18.082Z,30.63
2022-12-08T00:03:45.219Z,22.92
2022-12-08T00:06:58.991Z,22.27
2022-12-08T00:09:39.684Z,25.30
2022-12-08T00:12:12.327Z,25.50
2022-12-08T00:14:47.305Z,28.95
2022-12-08T00:17:16.356Z,26.88
2022-12-08T00:19:44.012Z,30.65
2022-12-08T00:22:11.618Z,28.33
2022-12-08T00:24:39.797Z,27.00
2022-12-08T00:27:08.017Z,27.40
2022-12-08T00:29:34.613Z,29.75
2022-12-08T00:32:01.309Z,28.70
2022-12-08T00:34:27.934Z,28.38
2022-12-08T00:36:54.678Z,28.90
2022-12-08T00:39:22.241Z,30.15
2022-12-08T00:42:07.296Z,25.33
2022-12-08T00:44:33.930Z,29.48
2022-12-08T00:47:00.701Z,34.92
2022-12-08T00:49:27.313Z,27.55
2022-12-08T00:51:54.053Z,33.45
2022-12-08T00:54:22.871Z,30.48
2022-12-08T00:56:49.810Z,29.07
2022-12-08T00:59:16.637Z,36.70
2022-12-08T01:01:45.211Z,35.17
2022-12-08T01:04:17.847Z,27.20
2022-12-08T01:06:45.179Z,26.13
2022-12-08T01:09:13.447Z,23.92
2022-12-08T01:11:40.278Z,31.83
2022-12-08T01:14:06.861Z,30.83
2022-12-08T01:16:36.198Z,26.33
2022-12-08T01:19:03.890Z,28.35
2022-12-08T01:21:30.748Z,32.17
2022-12-08T01:24:00.347Z,28.80
2022-12-08T01:26:27.180Z,29.65
2022-12-08T01:28:53.844Z,29.35
2022-12-08T01:31:22.166Z,30.30
2022-12-08T01:33:49.628Z,24.25
2022-12-08T01:36:28.901Z,28.33
2022-12-08T01:38:58.506Z,31.90
2022-12-08T01:41:28.217Z,34.00
2022-12-08T01:46:30.052Z,29.98
2022-12-08T01:49:05.473Z,31.88
2022-12-08T01:51:36.260Z,28.52
2022-12-08T01:54:05.113Z,32.17
2022-12-08T01:56:41.350Z,30.17
2022-12-08T01:59:08.230Z,28.58
2022-12-08T02:01:35.105Z,27.48
2022-12-08T02:04:04.230Z,30.88
2022-12-08T02:06:35.052Z,34.20
2022-12-08T02:09:03.505Z,28.27
2022-12-08T02:11:30.198Z,37.45
2022-12-08T02:13:58.732Z,28.05
2022-12-08T02:16:44.241Z,36.15
2022-12-08T02:19:47.936Z,29.77
2022-12-08T02:22:43.337Z,26.15
2022-12-08T02:25:28.302Z,34.65
2022-12-08T02:27:54.873Z,26.30
2022-12-08T02:30:25.187Z,32.05
2022-12-08T02:33:13.322Z,32.20
2022-12-08T02:36:04.444Z,30.30
2022-12-08T02:38:36.924Z,34.33
2022-12-08T02:41:11.828Z,35.08
2022-12-08T02:43:55.074Z,33.45
2022-12-08T02:46:27.384Z,39.05
2022-12-08T02:48:56.993Z,35.20
2022-12-08T02:51:23.989Z,35.25
2022-12-08T02:53:50.922Z,40.10
2022-12-08T02:56:50.781Z,32.63
2022-12-08T02:59:38.874Z,30.70
2022-12-08T03:02:21.141Z,36.30
2022-12-08T03:05:08.602Z,34.42
2022-12-08T03:07:51.097Z,38.50
2022-12-08T03:10:37.403Z,34.25
2022-12-08T03:13:17.403Z,40.67
2022-12-08T03:15:48.274Z,41.50
2022-12-08T03:18:17.476Z,43.13
2022-12-08T03:20:46.311Z,40.42
2022-12-08T03:23:15.694Z,48.67
2022-12-08T03:25:50.270Z,40.33
2022-12-08T03:28:17.060Z,40.95
2022-12-08T03:30:47.478Z,46.60
2022-12-08T03:33:24.929Z,39.30
2022-12-08T03:35:53.065Z,46.25
2022-12-08T03:38:19.797Z,47.00
2022-12-08T03:41:09.149Z,47.58
2022-12-08T03:43:36.022Z,42.72
2022-12-08T03:46:02.933Z,37.50
2022-12-08T03:48:29.732Z,43.58
2022-12-08T03:50:56.439Z,45.83
2022-12-08T03:53:23.302Z,47.40
2022-12-08T03:55:49.957Z,44.15
2022-12-08T03:58:16.582Z,53.83
2022-12-08T04:00:43.176Z,41.65
2022-12-08T04:03:10.156Z,39.10
2022-12-08T04:05:36.833Z,43.28
2022-12-08T04:08:03.687Z,49.22
2022-12-08T04:10:30.402Z,44.40
2022-12-08T04:12:57.516Z,45.25
2022-12-08T04:15:24.364Z,39.50
2022-12-08T04:17:51.073Z,47.63
2022-12-08T04:20:17.871Z,45.15
2022-12-08T04:22:44.462Z,54.35
2022-12-08T04:25:11.289Z,55.20
2022-12-08T04:27:37.952Z,54.20
2022-12-08T04:30:05.374Z,50.92
2022-12-08T04:32:32.256Z,57.85
2022-12-08T04:34:58.840Z,60.08
2022-12-08T04:37:25.425Z,56.17
2022-12-08T04:39:52.068Z,53.03
2022-12-08T04:42:18.696Z,61.97
2022-12-08T04:44:45.290Z,58.60
2022-12-08T04:47:12.079Z,61.67
2022-12-08T04:49:38.844Z,60.97
2022-12-08T04:52:05.692Z,66.95
2022-12-08T04:54:32.422Z,59.75
2022-12-08T04:56:59.019Z,67.28
2022-12-08T04:59:25.708Z,60.50
2022-12-08T05:01:52.469Z,70.13
2022-12-08T05:04:19.286Z,70.00
2022-12-08T05:06:45.890Z,59.30
2022-12-08T05:09:12.661Z,64.20
2022-12-08T05:11:48.399Z,59.70
2022-12-08T05:14:17.096Z,70.07
2022-12-08T05:16:44.563Z,70.15
2022-12-08T05:19:11.418Z,64.78
2022-12-08T05:21:38.136Z,60.20
2022-12-08T05:24:05.182Z,58.67
2022-12-08T05:26:31.900Z,61.55
2022-12-08T05:28:58.647Z,61.03
2022-12-08T05:31:25.829Z,62.65
2022-12-08T05:33:53.040Z,64.22
2022-12-08T05:36:20.340Z,53.28
2022-12-08T05:38:47.635Z,59.60
2022-12-08T05:41:17.616Z,62.13
2022-12-08T05:43:44.334Z,56.05
2022-12-08T05:46:11.979Z,58.53
2022-12-08T05:48:39.159Z,63.00
2022-12-08T05:51:12.072Z,58.30
2022-12-08T05:53:38.816Z,60.83
2022-12-08T05:56:05.611Z,52.45
2022-12-08T05:58:32.645Z,50.35
2022-12-08T06:00:59.309Z,58.60
2022-12-08T06:03:26.176Z,54.60
2022-12-08T06:05:52.800Z,58.08
2022-12-08T06:08:19.473Z,54.90
2022-12-08T06:10:46.636Z,59.80
2022-12-08T06:13:14.235Z,47.38
2022-12-08T06:15:41.190Z,48.00
2022-12-08T06:18:08.320Z,50.17
2022-12-08T06:20:35.315Z,58.03
2022-12-08T06:23:03.464Z,54.10
2022-12-08T06:25:30.119Z,49.25
2022-12-08T06:27:56.829Z,50.63
2022-12-08T06:30:23.462Z,48.13
2022-12-08T06:32:50.216Z,44.42
2022-12-08T06:35:16.963Z,42.80
2022-12-08T06:37:43.592Z,44.65
2022-12-08T06:40:10.681Z,43.75
2022-12-08T06:42:43.573Z,44.70
2022-12-08T06:45:12.065Z,51.00
2022-12-08T06:47:38.772Z,46.35
2022-12-08T06:50:07.080Z,47.92
2022-12-08T06:52:36.529Z,41.55
2022-12-08T06:55:06.152Z,40.88
2022-12-08T06:57:32.906Z,39.97
2022-12-08T06:59:59.512Z,42.58
2022-12-08T07:02:26.155Z,44.13
2022-12-08T07:04:52.885Z,45.20
2022-12-08T07:07:19.650Z,48.03
2022-12-08T07:09:46.304Z,50.20
2022-12-08T07:12:12.873Z,45.13
2022-12-08T07:14:39.652Z,43.40
2022-12-08T07:17:06.351Z,41.45
2022-12-08T07:19:33.323Z,48.90
2022-12-08T07:21:59.928Z,47.03
2022-12-08T07:24:26.598Z,37.78
2022-12-08T07:26:53.193Z,42.00
2022-12-08T07:29:25.951Z,45.10
2022-12-08T07:31:52.980Z,45.70
2022-12-08T07:34:19.709Z,38.90
2022-12-08T07:36:46.354Z,43.15
2022-12-08T07:39:12.996Z,40.22
2022-12-08T07:41:39.614Z,38.13
2022-12-08T07:44:06.260Z,36.10
2022-12-08T07:46:32.900Z,39.25
2022-12-08T07:48:59.972Z,37.05
2022-12-08T07:51:26.688Z,41.00
2022-12-08T07:53:55.032Z,38.85
2022-12-08T07:56:22.953Z,32.50
2022-12-08T07:58:49.672Z,32.05
2022-12-08T08:01:27.855Z,36.78
2022-12-08T08:03:56.831Z,34.47
2022-12-08T08:06:23.445Z,30.20
2022-12-08T08:08:50.172Z,35.55
2022-12-08T08:11:21.171Z,35.92
2022-12-08T08:13:49.280Z,34.08
2022-12-08T08:16:16.150Z,28.45
2022-12-08T08:18:43.623Z,29.67
2022-12-08T08:21:43.203Z,30.83
2022-12-08T08:23:56.916Z,34.30
2022-12-08T08:26:23.561Z,36.13
2022-12-08T08:28:50.297Z,32.00
2022-12-08T08:31:17.090Z,33.22
2022-12-08T08:33:43.802Z,30.85
2022-12-08T08:36:11.421Z,31.38
2022-12-08T08:38:42.926Z,35.50
2022-12-08T08:41:10.903Z,35.83
2022-12-08T08:43:39.012Z,36.63
2022-12-08T08:46:06.679Z,37.00
2022-12-08T08:48:34.203Z,35.35
2022-12-08T08:51:11.245Z,43.38
2022-12-08T08:53:38.398Z,36.25
2022-12-08T08:56:13.154Z,38.67
2022-12-08T08:58:40.361Z,43.20
2022-12-08T09:01:07.097Z,41.60
2022-12-08T09:03:34.207Z,42.13
2022-12-08T09:06:00.837Z,44.90
2022-12-08T09:08:27.704Z,44.92
2022-12-08T09:10:55.005Z,47.75
2022-12-08T09:13:22.374Z,45.47
2022-12-08T09:15:49.357Z,44.97
2022-12-08T09:18:16.024Z,44.90
2022-12-08T09:20:42.690Z,37.45
2022-12-08T09:23:09.316Z,39.15
2022-12-08T09:25:35.945Z,41.90
2022-12-08T09:28:02.591Z,46.50
2022-12-08T09:30:29.306Z,43.00
2022-12-08T09:32:55.966Z,48.92
2022-12-08T09:35:22.615Z,39.67
2022-12-08T09:37:49.185Z,36.30
2022-12-08T09:40:19.164Z,39.05
2022-12-08T09:43:10.298Z,42.55
2022-12-08T09:45:37.759Z,40.78
2022-12-08T09:48:18.730Z,43.03
2022-12-08T09:50:53.686Z,34.67
2022-12-08T09:53:48.357Z,36.20
2022-12-08T09:56:35.779Z,36.45
2022-12-08T09:59:23.086Z,34.22
2022-12-08T10:01:50.815Z,43.40
2022-12-08T10:04:38.459Z,36.40
2022-12-08T10:07:20.737Z,31.52
2022-12-08T10:10:17.746Z,38.08
2022-12-08T10:13:16.293Z,37.10
2022-12-08T10:16:08.768Z,39.05
2022-12-08T10:18:37.687Z,39.92
2022-12-08T10:21:32.419Z,43.10
2022-12-08T10:24:05.840Z,40.95
2022-12-08T10:26:32.912Z,37.65
2022-12-08T10:29:02.649Z,40.45
2022-12-08T10:34:05.656Z,39.47
2022-12-08T10:36:45.057Z,43.60
2022-12-08T10:39:34.947Z,37.25
2022-12-08T10:42:14.367Z,35.35
2022-12-08T10:45:00.580Z,30.45
2022-12-08T10:47:29.211Z,34.40
2022-12-08T10:50:33.576Z,35.75
2022-12-08T10:53:07.810Z,29.95
2022-12-08T10:55:48.801Z,31.60
2022-12-08T10:58:27.494Z,27.55
2022-12-08T11:01:11.025Z,28.25
2022-12-08T11:04:01.841Z,24.75
2022-12-08T11:06:35.657Z,20.02
2022-12-08T11:09:04.549Z,18.85
2022-12-08T11:12:05.025Z,17.73
2022-12-08T11:14:43.619Z,20.35
2022-12-08T11:17:17.650Z,13.90
2022-12-08T11:20:06.905Z,13.50
2022-12-08T11:22:38.887Z,15.20
2022-12-08T11:25:10.227Z,15.38
2022-12-08T11:27:45.726Z,21.08
2022-12-08T11:30:24.192Z,19.33
2022-12-08T11:32:55.500Z,13.93
2022-12-08T11:35:29.837Z,21.85
2022-12-08T11:38:13.738Z,15.55
2022-12-08T11:40:50.690Z,13.73
2022-12-08T11:43:35.717Z,13.07
2022-12-08T11:46:12.624Z,12.88
2022-12-08T11:49:05.627Z,13.73
2022-12-08T11:51:56.338Z,15.88
2022-12-08T11:57:08.584Z,9.93
2022-12-08T11:59:39.694Z,14.30
2022-12-08T12:02:13.583Z,10.25
2022-12-08T12:04:52.643Z,16.52
2022-12-08T12:07:52.340Z,10.63
2022-12-08T12:13:06.924Z,10.38
2022-12-08T12:15:36.533Z,9.40
2022-12-08T12:18:16.499Z,11.93
2022-12-08T12:20:56.933Z,13.20
2022-12-08T12:23:40.412Z,11.15
2022-12-08T12:26:10.297Z,10.65
2022-12-08T12:28:52.597Z,10.20
2022-12-08T12:31:33.080Z,13.40
2022-12-08T12:34:14.530Z,12.95
2022-12-08T12:37:05.479Z,9.20
2022-12-08T12:39:46.321Z,10.73
2022-12-08T12:42:35.567Z,10.55
2022-12-08T12:45:17.233Z,9.80
2022-12-08T12:47:51.033Z,9.65
2022-12-08T12:50:34.656Z,16.05
2022-12-08T12:53:03.512Z,10.23
2022-12-08T12:55:52.028Z,10.63
2022-12-08T12:58:32.426Z,14.50
2022-12-08T13:01:13.876Z,16.48
2022-12-08T13:03:47.342Z,9.75
2022-12-08T13:06:21.391Z,12.23
2022-12-08T13:08:55.042Z,13.50
2022-12-08T13:11:23.213Z,13.10
2022-12-08T13:14:03.170Z,10.88
2022-12-08T13:16:37.017Z,13.30
2022-12-08T13:19:15.910Z,10.70
2022-12-08T13:21:42.750Z,12.48
2022-12-08T13:24:26.782Z,12.23
2022-12-08T13:27:29.563Z,11.07
2022-12-08T13:30:33.855Z,10.25
2022-12-08T13:33:18.459Z,13.23
2022-12-08T13:35:51.433Z,16.58
2022-12-08T13:38:21.338Z,10.82
2022-12-08T13:40:49.120Z,12.98
2022-12-08T13:43:21.593Z,12.52
2022-12-08T13:46:52.511Z,10.70
2022-12-08T13:50:15.605Z,9.65
2022-12-08T13:55:35.477Z,13.38
2022-12-08T13:57:33.057Z,11.13
2022-12-08T14:00:06.051Z,11.27
2022-12-08T14:02:48.227Z,10.20
2022-12-08T14:05:26.417Z,12.65
2022-12-08T14:08:02.257Z,9.02
2022-12-08T14:10:31.952Z,11.27
2022-12-08T14:15:37.618Z,11.63
2022-12-08T14:18:05.865Z,10.90
2022-12-08T14:20:51.889Z,9.75
2022-12-08T14:23:18.890Z,10.43
2022-12-08T14:25:48.154Z,9.73
2022-12-08T14:28:14.941Z,8.85
2022-12-08T14:30:41.640Z,8.75
2022-12-08T14:33:14.666Z,9.18
2022-12-08T14:35:41.283Z,13.13
2022-12-08T14:38:19.279Z,11.13
2022-12-08T14:40:48.657Z,10.75
2022-12-08T14:43:19.287Z,10.73
2022-12-08T14:45:47.005Z,8.70
2022-12-08T14:48:33.514Z,10.55
2022-12-08T14:51:18.685Z,11.35
2022-12-08T14:54:00.683Z,9.98
2022-12-08T14:56:33.424Z,8.43
2022-12-08T14:59:17.915Z,8.80
2022-12-08T15:01:45.672Z,8.25
2022-12-08T15:04:12.293Z,9.50
2022-12-08T15:07:09.849Z,5.10
2022-12-08T15:09:45.657Z,7.20
2022-12-08T15:12:12.276Z,5.05
2022-12-08T15:14:43.425Z,3.60
2022-12-08T15:17:34.742Z,6.50
2022-12-08T15:20:03.184Z,4.03
2022-12-08T15:22:31.414Z,5.22
2022-12-08T15:24:58.476Z,5.22
2022-12-08T15:27:25.736Z,7.13
2022-12-08T15:29:52.937Z,5.25
2022-12-08T15:32:22.037Z,6.55
2022-12-08T15:34:49.437Z,5.43
2022-12-08T15:37:21.954Z,8.20
2022-12-08T15:39:49.223Z,6.95
2022-12-08T15:42:16.275Z,11.10
2022-12-08T15:44:43.465Z,7.90
2022-12-08T15:47:16.920Z,8.13
2022-12-08T15:49:44.293Z,6.20
2022-12-08T15:52:15.982Z,6.78
2022-12-08T15:54:42.796Z,7.03
2022-12-08T15:58:04.026Z,8.23
2022-12-08T16:04:09.328Z,9.35
2022-12-08T16:09:12.183Z,10.15
2022-12-08T16:12:07.849Z,10.60
2022-12-08T16:17:23.495Z,8.75
2022-12-08T16:19:50.168Z,8.27
2022-12-08T16:25:23.127Z,10.18
2022-12-08T16:28:08.386Z,8.98
2022-12-08T16:30:40.621Z,9.63
2022-12-08T16:33:07.598Z,10.82
2022-12-08T16:35:34.377Z,11.30
2022-12-08T16:38:01.416Z,11.38
2022-12-08T16:40:28.092Z,9.77
2022-12-08T16:42:54.801Z,11.07
2022-12-08T16:45:27.653Z,15.02
2022-12-08T16:47:59.982Z,11.95
2022-12-08T16:50:32.151Z,14.20
2022-12-08T16:53:02.011Z,10.05
2022-12-08T16:55:28.694Z,18.00
2022-12-08T16:57:56.019Z,11.13
2022-12-08T17:00:25.400Z,12.85
2022-12-08T17:02:52.398Z,17.00
2022-12-08T17:05:21.278Z,18.77
2022-12-08T17:07:51.064Z,13.52
2022-12-08T17:10:20.837Z,13.18
2022-12-08T17:15:18.273Z,13.65
2022-12-08T17:17:45.065Z,15.43
2022-12-08T17:20:19.142Z,13.45
2022-12-08T17:22:46.735Z,18.48
2022-12-08T17:25:14.021Z,20.13
2022-12-08T17:27:41.765Z,14.02
2022-12-08T17:30:11.593Z,14.52
2022-12-08T17:32:38.908Z,11.02
2022-12-08T17:35:14.385Z,11.82
2022-12-08T17:37:42.700Z,14.25
2022-12-08T17:40:09.690Z,14.02
2022-12-08T17:42:37.962Z,13.30
2022-12-08T17:45:06.675Z,14.75
2022-12-08T17:47:33.538Z,15.65
2022-12-08T17:50:00.800Z,16.05
2022-12-08T17:52:27.872Z,15.23
2022-12-08T17:54:54.519Z,13.30
2022-12-08T17:57:21.268Z,15.57
2022-12-08T17:59:47.960Z,14.27
2022-12-08T18:02:15.115Z,16.65
2022-12-08T18:04:41.975Z,18.30
2022-12-08T18:07:08.564Z,14.75
2022-12-08T18:09:35.324Z,15.85
2022-12-08T18:12:02.020Z,13.65
2022-12-08T18:14:28.919Z,17.08
2022-12-08T18:16:55.705Z,17.02
2022-12-08T18:19:22.629Z,16.58
2022-12-08T18:21:49.552Z,17.83
2022-12-08T18:24:20.849Z,16.50
2022-12-08T18:26:47.829Z,25.70
2022-12-08T18:29:14.545Z,17.45
2022-12-08T18:31:41.333Z,19.98
2022-12-08T18:34:08.104Z,24.10
2022-12-08T18:36:35.072Z,24.40
2022-12-08T18:39:07.241Z,31.70
2022-12-08T18:41:37.097Z,32.97
2022-12-08T18:44:03.952Z,25.42
2022-12-08T18:46:30.617Z,25.63
2022-12-08T18:48:58.028Z,27.98
2022-12-08T18:51:25.210Z,27.00
2022-12-08T18:53:52.774Z,26.13
2022-12-08T18:56:27.995Z,25.20
2022-12-08T18:59:01.292Z,26.60
2022-12-08T19:01:30.193Z,25.70
2022-12-08T19:04:26.575Z,24.75
2022-12-08T19:06:46.003Z,24.57
2022-12-08T19:09:14.061Z,24.92
2022-12-08T19:11:41.460Z,23.50
2022-12-08T19:14:08.763Z,22.50
2022-12-08T19:16:36.356Z,23.40
2022-12-08T19:19:03.890Z,25.25
2022-12-08T19:21:31.311Z,28.27
2022-12-08T19:24:01.446Z,27.83
2022-12-08T19:26:28.716Z,21.63
2022-12-08T19:28:55.487Z,21.55
2022-12-08T19:31:22.204Z,22.80
2022-12-08T19:33:48.890Z,29.85
2022-12-08T19:36:18.502Z,29.60
2022-12-08T19:39:04.263Z,35.10
2022-12-08T19:41:50.235Z,33.90
2022-12-08T19:44:28.884Z,31.42
2022-12-08T19:46:55.680Z,27.98
2022-12-08T19:49:22.402Z,27.15
2022-12-08T19:51:49.112Z,24.67
2022-12-08T19:54:15.703Z,29.52
2022-12-08T19:56:42.319Z,29.70
2022-12-08T19:59:08.974Z,27.73
2022-12-08T20:01:37.561Z,26.15
2022-12-08T20:04:04.972Z,29.38
2022-12-08T20:06:31.629Z,30.50
2022-12-08T20:08:58.323Z,32.95
2022-12-08T20:11:24.948Z,27.02
2022-12-08T20:13:51.572Z,30.98
2022-12-08T20:16:18.315Z,28.88
2022-12-08T20:18:45.879Z,22.92
2022-12-08T20:21:12.666Z,31.05
2022-12-08T20:23:39.349Z,25.13
2022-12-08T20:26:07.952Z,24.20
2022-12-08T20:28:35.391Z,28.52
2022-12-08T20:31:02.192Z,39.60
2022-12-08T20:33:29.396Z,26.02
2022-12-08T20:36:01.562Z,25.35
2022-12-08T20:38:29.467Z,29.70
2022-12-08T20:40:57.913Z,28.65
2022-12-08T20:43:25.325Z,29.83
2022-12-08T20:45:52.042Z,26.27
2022-12-08T20:48:18.616Z,25.40
2022-12-08T20:50:45.565Z,26.48
2022-12-08T20:53:12.172Z,29.98
2022-12-08T20:55:41.936Z,27.70
2022-12-08T21:00:35.582Z,25.17
2022-12-08T21:03:02.389Z,27.80
2022-12-08T21:05:29.561Z,31.08
2022-12-08T21:07:56.572Z,28.92
2022-12-08T21:10:23.241Z,25.77
2022-12-08T21:12:50.120Z,37.67
2022-12-08T21:15:16.789Z,35.70
2022-12-08T21:17:43.986Z,32.17
2022-12-08T21:20:11.408Z,32.33
2022-12-08T21:22:39.899Z,36.00
2022-12-08T21:25:07.668Z,43.47
2022-12-08T21:27:34.389Z,42.80
2022-12-08T21:30:01.131Z,40.67
2022-12-08T21:32:30.697Z,44.53
2022-12-08T21:34:57.963Z,39.67
2022-12-08T21:37:25.023Z,32.25
2022-12-08T21:39:51.847Z,33.75
2022-12-08T21:42:37.177Z,38.05
2022-12-08T21:45:04.146Z,32.60
2022-12-08T21:47:30.944Z,37.22
2022-12-08T21:49:58.093Z,33.25
2022-12-08T21:52:24.791Z,39.40
2022-12-08T21:54:51.772Z,35.50
2022-12-08T21:57:18.442Z,31.77
2022-12-08T21:59:45.318Z,32.92
2022-12-08T22:02:16.656Z,31.92
2022-12-08T22:04:47.977Z,32.35
2022-12-08T22:07:15.031Z,28.70
2022-12-08T22:09:42.154Z,33.47
2022-12-08T22:12:11.850Z,33.25
2022-12-08T22:17:07.984Z,34.40
2022-12-08T22:19:34.902Z,35.83
2022-12-08T22:22:02.658Z,38.35
2022-12-08T22:24:30.905Z,39.25
2022-12-08T22:26:57.919Z,30.58
2022-12-08T22:29:24.985Z,38.33
2022-12-08T22:31:51.811Z,32.25
2022-12-08T22:34:18.681Z,36.85
2022-12-08T22:36:46.097Z,32.50
2022-12-08T22:39:13.255Z,33.70
2022-12-08T22:41:40.618Z,57.88
2022-12-08T22:44:08.186Z,52.17
2022-12-08T22:46:35.345Z,46.03
2022-12-08T22:49:02.638Z,35.92
2022-12-08T22:51:29.971Z,27.08
2022-12-08T22:53:56.874Z,25.77
2022-12-08T22:56:24.149Z,27.67
2022-12-08T22:58:51.314Z,29.20
2022-12-08T23:01:29.988Z,31.17
2022-12-08T23:03:58.160Z,31.38
2022-12-08T23:06:26.550Z,36.97
2022-12-08T23:08:53.417Z,27.88
2022-12-08T23:11:21.955Z,28.67
2022-12-08T23:13:49.055Z,32.53
2022-12-08T23:16:15.894Z,28.52
2022-12-08T23:18:45.133Z,30.27
2022-12-08T23:21:16.255Z,26.02
2022-12-08T23:23:42.933Z,34.15
2022-12-08T23:26:19.819Z,33.33
2022-12-08T23:28:47.355Z,27.55
2022-12-08T23:31:14.412Z,27.35
2022-12-08T23:33:41.497Z,27.13
2022-12-08T23:36:09.119Z,26.63
2022-12-08T23:38:35.993Z,32.75
2022-12-08T23:41:05.398Z,29.33
2022-12-08T23:43:32.459Z,27.50
2022-12-08T23:45:59.167Z,29.23
2022-12-08T23:48:26.671Z,29.63
2022-12-08T23:50:53.590Z,31.00
2022-12-08T23:53:20.340Z,31.30
2022-12-08T23:55:47.012Z,24.52
2022-12-08T23:58:14.261Z,25.33
